Time;durP1;ratioP1;P1;durP2;ratioP2;P2;SDS_P1;SDS_P2;PMS_P1;PMS_P2;Temp;Humidity;BMP_temperature;BMP_pressure;BME280_temperature;BME280_humidity;BME280_pressure;Samples;Min_cycle;Max_cycle;Signal;HPM_P1;HPM_P2
2021/05/24 00:01:25;;;;;;;11.70;3.80;;;17.10;99.90;;;;;;5031555;28;20044;-66
2021/05/24 00:04:29;;;;;;;18.48;5.53;;;17.10;99.90;;;;;;5018940;28;20040;-67
2021/05/24 00:07:33;;;;;;;12.63;4.30;;;17.00;99.90;;;;;;5031187;28;20049;-67
2021/05/24 00:10:39;;;;;;;12.77;4.25;;;17.00;99.90;;;;;;5030725;28;20056;-66
2021/05/24 00:13:52;;;;;;;10.88;4.32;;;17.10;99.90;;;;;;5030899;28;20388;-67
2021/05/24 00:16:57;;;;;;;15.15;4.28;;;17.10;99.90;;;;;;5031244;28;20408;-66
2021/05/24 00:20:03;;;;;;;19.48;4.97;;;17.20;99.90;;;;;;5030834;28;20495;-66
2021/05/24 00:23:07;;;;;;;8.60;4.40;;;17.20;99.90;;;;;;5025855;28;20033;-67
2021/05/24 00:26:13;;;;;;;11.10;4.28;;;17.20;99.90;;;;;;5022406;28;20048;-67
2021/05/24 00:29:20;;;;;;;13.23;4.30;;;17.30;99.90;;;;;;5028547;28;20064;-66
2021/05/24 00:32:24;;;;;;;12.70;4.45;;;17.20;99.90;;;;;;5030612;28;20068;-67
2021/05/24 00:35:29;;;;;;;12.82;5.15;;;17.10;99.90;;;;;;5030154;28;20048;-67
2021/05/24 00:38:53;;;;;;;12.38;4.20;;;17.00;99.90;;;;;;5020192;28;20492;-66
2021/05/24 00:41:57;;;;;;;10.70;3.90;;;16.90;99.90;;;;;;5030064;28;20044;-66
2021/05/24 00:45:05;;;;;;;10.10;4.18;;;16.80;99.90;;;;;;5029373;28;20056;-66
2021/05/24 00:48:09;;;;;;;7.72;4.00;;;16.80;99.90;;;;;;5030499;28;20488;-66
2021/05/24 00:51:14;;;;;;;12.38;3.83;;;16.80;99.90;;;;;;5029620;28;20239;-66
2021/05/24 00:54:18;;;;;;;14.45;4.47;;;16.70;99.90;;;;;;5029220;28;20513;-66
2021/05/24 00:57:22;;;;;;;14.05;4.30;;;16.60;99.90;;;;;;5030162;28;20044;-66
2021/05/24 01:00:29;;;;;;;10.13;4.90;;;16.50;99.90;;;;;;5029694;28;20068;-66
2021/05/24 01:03:33;;;;;;;17.25;5.63;;;16.50;99.90;;;;;;5030039;28;20040;-66
2021/05/24 01:06:38;;;;;;;14.32;5.07;;;16.40;99.90;;;;;;5029769;28;20044;-66
2021/05/24 01:09:42;;;;;;;13.60;5.00;;;16.50;99.90;;;;;;5029715;28;20065;-66
2021/05/24 01:12:47;;;;;;;13.98;5.03;;;16.40;99.90;;;;;;5030435;28;20408;-66
2021/05/24 01:15:50;;;;;;;16.17;5.00;;;16.30;99.90;;;;;;5029949;28;20049;-66
2021/05/24 01:18:55;;;;;;;17.35;4.93;;;16.10;99.90;;;;;;5029229;28;20048;-66
2021/05/24 01:21:59;;;;;;;15.10;5.93;;;16.00;99.90;;;;;;5029639;28;20056;-66
2021/05/24 01:25:05;;;;;;;17.48;6.95;;;16.00;99.90;;;;;;5028947;28;20052;-66
2021/05/24 01:28:12;;;;;;;17.95;6.70;;;15.70;99.90;;;;;;5029290;28;20411;-66
2021/05/24 01:31:16;;;;;;;16.90;7.45;;;15.60;99.90;;;;;;5029593;28;20044;-66
2021/05/24 01:34:20;;;;;;;26.65;8.52;;;15.50;99.90;;;;;;5017500;28;20420;-67
2021/05/24 01:37:24;;;;;;;21.55;8.18;;;15.40;99.90;;;;;;5029244;28;20396;-68
2021/05/24 01:40:28;;;;;;;22.35;8.82;;;15.30;99.90;;;;;;5028454;28;20048;-67
2021/05/24 01:43:33;;;;;;;22.00;9.38;;;15.20;99.90;;;;;;5029607;28;20041;-67
2021/05/24 01:46:38;;;;;;;25.70;9.80;;;15.10;99.90;;;;;;5029336;28;20044;-69
2021/05/24 01:49:47;;;;;;;21.60;10.48;;;15.10;99.90;;;;;;5029879;28;20112;-67
2021/05/24 01:52:51;;;;;;;27.20;11.48;;;14.90;99.90;;;;;;5029585;28;20044;-67
2021/05/24 01:55:56;;;;;;;31.55;13.75;;;14.80;99.90;;;;;;5028850;28;20045;-68
2021/05/24 01:59:03;;;;;;;33.95;12.73;;;14.70;99.90;;;;;;5029621;28;20048;-68
2021/05/24 02:02:07;;;;;;;33.22;13.88;;;14.80;99.90;;;;;;5030952;28;20389;-67
2021/05/24 02:05:13;;;;;;;31.98;14.60;;;14.70;99.90;;;;;;5033220;28;20044;-68
2021/05/24 02:08:17;;;;;;;29.15;14.40;;;14.90;99.90;;;;;;5032800;28;20045;-68
2021/05/24 02:11:21;;;;;;;23.67;12.45;;;15.00;99.90;;;;;;5033055;28;20052;-68
2021/05/24 02:14:25;;;;;;;21.20;11.60;;;15.10;99.90;;;;;;5033081;28;20100;-68
2021/05/24 02:17:29;;;;;;;18.83;11.68;;;15.30;99.90;;;;;;5033253;28;20044;-67
2021/05/24 02:20:34;;;;;;;23.45;11.45;;;15.40;99.90;;;;;;5032707;28;20048;-67
2021/05/24 02:23:38;;;;;;;24.65;12.30;;;15.50;99.90;;;;;;5032167;28;20044;-67
2021/05/24 02:26:45;;;;;;;25.55;12.15;;;15.50;99.90;;;;;;5032649;28;20365;-68
2021/05/24 02:29:50;;;;;;;26.27;11.70;;;15.60;99.90;;;;;;5032232;28;20849;-67
2021/05/24 02:32:55;;;;;;;29.65;11.65;;;15.70;99.90;;;;;;5033073;28;20041;-67
2021/05/24 02:35:59;;;;;;;27.58;11.27;;;15.60;99.90;;;;;;5032688;28;20052;-68
2021/05/24 02:39:07;;;;;;;27.83;10.68;;;15.60;99.90;;;;;;5032604;28;20044;-68
2021/05/24 02:42:11;;;;;;;26.08;10.20;;;15.50;99.90;;;;;;5032374;28;20044;-70
2021/05/24 02:45:17;;;;;;;23.63;9.60;;;15.50;99.90;;;;;;5032632;28;20060;-68
2021/05/24 02:48:22;;;;;;;25.25;10.23;;;15.50;99.90;;;;;;5033161;28;20048;-69
2021/05/24 02:51:25;;;;;;;20.52;10.27;;;15.40;99.90;;;;;;5032513;28;20113;-70
2021/05/24 02:54:31;;;;;;;28.73;10.18;;;15.50;99.90;;;;;;5031410;28;20048;-71
2021/05/24 02:57:36;;;;;;;19.05;9.43;;;15.60;99.90;;;;;;5031454;28;20127;-71
2021/05/24 03:00:40;;;;;;;21.20;9.15;;;15.70;99.90;;;;;;5032059;28;20065;-70
2021/05/24 03:03:44;;;;;;;16.35;8.68;;;15.70;99.90;;;;;;5033030;28;20057;-70
2021/05/24 03:06:47;;;;;;;19.80;9.25;;;15.60;99.90;;;;;;5032242;28;20682;-70
2021/05/24 03:09:51;;;;;;;26.85;11.30;;;15.60;99.90;;;;;;5031667;28;20392;-69
2021/05/24 03:12:56;;;;;;;19.73;10.13;;;15.30;99.90;;;;;;5031939;28;20052;-69
2021/05/24 03:16:00;;;;;;;18.00;10.05;;;15.10;99.90;;;;;;5031912;28;20048;-69
2021/05/24 03:19:05;;;;;;;18.80;10.13;;;15.10;99.90;;;;;;5032035;28;20041;-70
2021/05/24 03:22:09;;;;;;;20.27;9.38;;;15.20;99.90;;;;;;5031456;28;20048;-70
2021/05/24 03:25:16;;;;;;;18.88;11.05;;;15.30;99.90;;;;;;5031205;28;20044;-70
2021/05/24 03:28:20;;;;;;;18.05;9.57;;;15.30;99.90;;;;;;5030628;28;20048;-69
2021/05/24 03:31:25;;;;;;;19.75;9.23;;;15.40;99.90;;;;;;5031663;28;20052;-69
2021/05/24 03:34:29;;;;;;;16.65;8.68;;;15.40;99.90;;;;;;5031406;28;20044;-69
2021/05/24 03:37:33;;;;;;;16.58;8.95;;;15.50;99.90;;;;;;5031013;28;20519;-70
2021/05/24 03:40:37;;;;;;;15.57;9.02;;;15.50;99.90;;;;;;5030469;28;20420;-69
2021/05/24 03:43:44;;;;;;;11.98;7.53;;;15.50;99.90;;;;;;5031380;28;20392;-69
2021/05/24 03:46:48;;;;;;;14.55;7.82;;;15.50;99.90;;;;;;5031165;28;20044;-69
2021/05/24 03:49:53;;;;;;;10.77;7.22;;;15.40;99.90;;;;;;5031693;28;20052;-69
2021/05/24 03:52:59;;;;;;;13.65;7.43;;;15.40;99.90;;;;;;5031254;28;20269;-69
2021/05/24 03:56:03;;;;;;;17.10;7.72;;;15.40;99.90;;;;;;5031335;28;20048;-68
2021/05/24 03:59:08;;;;;;;18.95;7.15;;;15.30;99.90;;;;;;5030125;28;20096;-68
2021/05/24 04:02:13;;;;;;;15.20;7.78;;;15.30;99.90;;;;;;5031291;28;20397;-68
2021/05/24 04:05:31;;;;;;;18.05;8.05;;;15.10;99.90;;;;;;5030679;28;20423;-68
2021/05/24 04:08:40;;;;;;;16.10;7.72;;;15.00;99.90;;;;;;5026846;28;20061;-69
2021/05/24 04:11:45;;;;;;;17.63;8.15;;;15.00;99.90;;;;;;5030452;28;20056;-69
2021/05/24 04:14:50;;;;;;;23.15;10.00;;;15.00;99.90;;;;;;5011005;28;20056;-69
2021/05/24 04:17:58;;;;;;;17.52;9.35;;;14.80;99.90;;;;;;5013299;28;20405;-69
2021/05/24 04:21:03;;;;;;;20.55;10.00;;;14.90;99.90;;;;;;5030563;28;20048;-69
2021/05/24 04:24:09;;;;;;;18.67;10.43;;;15.00;99.90;;;;;;5029510;28;20831;-68
2021/05/24 04:27:13;;;;;;;25.92;9.73;;;15.00;99.90;;;;;;5030640;28;20056;-69
2021/05/24 04:30:17;;;;;;;20.73;9.32;;;15.00;99.90;;;;;;5028693;28;20056;-70
2021/05/24 04:33:21;;;;;;;18.75;9.88;;;15.10;99.90;;;;;;5030159;28;20502;-69
2021/05/24 04:36:25;;;;;;;21.40;10.65;;;15.10;99.90;;;;;;5018117;28;20052;-69
2021/05/24 04:39:29;;;;;;;18.63;9.85;;;15.20;99.90;;;;;;5024924;28;20036;-69
2021/05/24 04:42:33;;;;;;;19.90;9.63;;;15.20;99.90;;;;;;5021568;28;20037;-70
2021/05/24 04:45:38;;;;;;;19.45;9.82;;;15.00;99.90;;;;;;5018700;28;20053;-69
2021/05/24 04:48:42;;;;;;;21.40;10.45;;;15.10;99.90;;;;;;5010911;28;20049;-69
2021/05/24 04:51:47;;;;;;;21.83;9.57;;;15.10;99.90;;;;;;5010149;28;20392;-69
2021/05/24 04:54:52;;;;;;;21.73;11.10;;;15.10;99.90;;;;;;5009646;28;20048;-69
2021/05/24 04:57:56;;;;;;;18.63;9.98;;;15.10;99.90;;;;;;5010188;28;20520;-68
2021/05/24 05:01:01;;;;;;;18.85;9.75;;;15.00;99.90;;;;;;5010273;28;20460;-68
2021/05/24 05:04:07;;;;;;;29.85;12.20;;;14.90;99.90;;;;;;5010684;28;20049;-68
2021/05/24 05:07:12;;;;;;;20.70;11.05;;;14.70;99.90;;;;;;5018040;28;20044;-69
2021/05/24 05:10:16;;;;;;;29.10;12.13;;;14.50;99.90;;;;;;5023666;28;20048;-68
2021/05/24 05:13:22;;;;;;;62.90;14.98;;;14.60;99.90;;;;;;5020571;28;20052;-67
2021/05/24 05:16:26;;;;;;;50.00;15.68;;;14.40;99.90;;;;;;5020290;28;20048;-67
2021/05/24 05:19:31;;;;;;;30.92;14.35;;;14.40;99.90;;;;;;5028801;28;20052;-67
2021/05/24 05:22:35;;;;;;;30.20;12.85;;;14.40;99.90;;;;;;5009953;28;20045;-67
2021/05/24 05:25:40;;;;;;;23.33;11.27;;;14.50;99.90;;;;;;5010676;28;20049;-68
2021/05/24 05:28:44;;;;;;;28.30;13.55;;;14.60;99.90;;;;;;5028689;28;20082;-67
2021/05/24 05:31:48;;;;;;;24.13;11.02;;;14.70;99.90;;;;;;5018080;28;20044;-68
2021/05/24 05:34:53;;;;;;;25.30;10.90;;;14.80;99.90;;;;;;5026469;28;20044;-68
2021/05/24 05:37:57;;;;;;;17.88;10.80;;;14.90;99.90;;;;;;5032264;28;20044;-67
2021/05/24 05:41:03;;;;;;;17.35;9.80;;;15.00;99.90;;;;;;5033685;28;20045;-68
2021/05/24 05:44:08;;;;;;;19.70;9.32;;;15.10;99.90;;;;;;5034202;28;20040;-69
2021/05/24 05:47:12;;;;;;;20.95;8.88;;;15.20;99.90;;;;;;5033878;28;20060;-68
2021/05/24 05:50:17;;;;;;;15.60;8.07;;;15.30;99.90;;;;;;5033367;28;20052;-69
2021/05/24 05:53:22;;;;;;;18.60;8.27;;;15.40;99.90;;;;;;5033743;28;20052;-68
2021/05/24 05:56:26;;;;;;;18.40;8.57;;;15.40;99.90;;;;;;5034199;28;20506;-68
2021/05/24 05:59:33;;;;;;;16.48;9.02;;;15.50;99.90;;;;;;5032198;28;20487;-68
2021/05/24 06:02:37;;;;;;;15.73;7.90;;;15.50;99.90;;;;;;5030046;28;20048;-68
2021/05/24 06:05:41;;;;;;;12.88;7.00;;;15.60;99.90;;;;;;5030461;28;20045;-68
2021/05/24 06:08:46;;;;;;;12.98;7.10;;;15.60;99.90;;;;;;5018257;28;20053;-67
2021/05/24 06:11:52;;;;;;;15.73;7.75;;;15.60;99.90;;;;;;5029082;28;20044;-68
2021/05/24 06:14:59;;;;;;;14.65;7.63;;;15.60;99.90;;;;;;5030150;28;20041;-68
2021/05/24 06:18:04;;;;;;;14.95;7.80;;;15.60;99.90;;;;;;5016388;28;20044;-68
2021/05/24 06:21:08;;;;;;;12.63;7.30;;;15.60;99.90;;;;;;5019544;28;20045;-68
2021/05/24 06:24:12;;;;;;;13.68;7.70;;;15.60;99.90;;;;;;5029969;28;20068;-68
2021/05/24 06:27:16;;;;;;;21.02;7.82;;;15.60;99.90;;;;;;5025121;28;20044;-68
2021/05/24 06:30:22;;;;;;;14.77;7.63;;;15.70;99.90;;;;;;5011958;28;20514;-68
2021/05/24 06:33:26;;;;;;;14.27;6.38;;;15.70;99.90;;;;;;5026356;28;20040;-69
2021/05/24 06:36:30;;;;;;;13.32;6.63;;;15.80;99.90;;;;;;5011229;28;20057;-68
2021/05/24 06:39:34;;;;;;;13.85;6.88;;;15.80;99.90;;;;;;5014652;28;20040;-68
2021/05/24 06:42:38;;;;;;;17.35;8.07;;;15.80;99.90;;;;;;5030398;28;20052;-68
2021/05/24 06:45:42;;;;;;;20.20;7.90;;;15.60;99.90;;;;;;5032796;28;20071;-68
2021/05/24 06:48:46;;;;;;;28.20;9.23;;;15.10;99.90;;;;;;5031318;28;20040;-69
2021/05/24 06:51:52;;;;;;;25.77;10.80;;;14.80;99.90;;;;;;5031504;28;20405;-68
2021/05/24 06:54:57;;;;;;;19.85;9.95;;;14.60;99.90;;;;;;5030942;28;20060;-69
2021/05/24 06:58:01;;;;;;;15.90;8.90;;;14.60;99.90;;;;;;5031701;28;20388;-68
2021/05/24 07:01:05;;;;;;;18.95;9.73;;;14.70;99.90;;;;;;5032069;28;20056;-68
2021/05/24 07:04:09;;;;;;;16.90;9.48;;;14.90;99.90;;;;;;5014690;28;20052;-68
2021/05/24 07:07:14;;;;;;;17.05;9.68;;;15.10;99.90;;;;;;5030926;28;20033;-68
2021/05/24 07:10:18;;;;;;;22.15;10.05;;;15.20;99.90;;;;;;5025100;28;20037;-69
2021/05/24 07:13:21;;;;;;;17.17;8.25;;;15.50;99.90;;;;;;5030652;28;20060;-68
2021/05/24 07:16:28;;;;;;;18.50;8.90;;;15.90;99.90;;;;;;5012845;28;20049;-67
2021/05/24 07:19:32;;;;;;;12.38;7.60;;;16.10;99.90;;;;;;5012044;28;20049;-68
2021/05/24 07:22:36;;;;;;;13.00;6.93;;;16.50;99.90;;;;;;5013732;28;20499;-68
2021/05/24 07:25:41;;;;;;;8.55;5.85;;;16.80;99.90;;;;;;5031160;28;20040;-68
2021/05/24 07:28:46;;;;;;;13.68;6.43;;;17.10;99.90;;;;;;5031634;28;20445;-68
2021/05/24 07:31:50;;;;;;;17.15;7.40;;;17.10;99.90;;;;;;5031682;28;20049;-68
2021/05/24 07:34:54;;;;;;;9.55;5.85;;;17.20;99.90;;;;;;5030618;28;20323;-68
2021/05/24 07:37:59;;;;;;;11.98;5.47;;;17.30;99.90;;;;;;5031232;28;20049;-68
2021/05/24 07:41:04;;;;;;;11.80;5.75;;;17.40;99.90;;;;;;5030338;28;20487;-68
2021/05/24 07:44:08;;;;;;;10.18;5.57;;;17.60;99.90;;;;;;5031206;28;20056;-67
2021/05/24 07:47:12;;;;;;;11.38;5.85;;;17.80;99.90;;;;;;5019748;28;20060;-67
2021/05/24 07:50:16;;;;;;;8.13;5.38;;;17.90;99.90;;;;;;5030804;28;20056;-68
2021/05/24 07:53:22;;;;;;;12.65;5.72;;;17.70;99.90;;;;;;5031814;28;20049;-68
2021/05/24 07:56:26;;;;;;;13.13;6.28;;;17.60;99.90;;;;;;5027366;28;20053;-67
2021/05/24 07:59:30;;;;;;;15.73;6.18;;;17.50;99.90;;;;;;5017707;28;20048;-68
2021/05/24 08:02:38;;;;;;;18.85;5.53;;;17.10;99.90;;;;;;5031054;28;20048;-66
2021/05/24 08:05:42;;;;;;;9.52;4.80;;;17.10;99.90;;;;;;5030311;28;20040;-67
2021/05/24 08:08:46;;;;;;;10.93;5.65;;;17.30;99.90;;;;;;5015372;28;20048;-68
2021/05/24 08:11:52;;;;;;;14.48;5.38;;;17.40;99.90;;;;;;5010622;28;20056;-67
2021/05/24 08:14:56;;;;;;;12.35;5.13;;;17.50;99.90;;;;;;5011398;28;20052;-68
2021/05/24 08:18:04;;;;;;;10.75;5.50;;;17.80;99.90;;;;;;5030166;28;20620;-68
2021/05/24 08:21:09;;;;;;;10.18;4.40;;;18.00;99.90;;;;;;5010539;28;20362;-68
2021/05/24 08:24:14;;;;;;;10.70;6.10;;;18.00;99.90;;;;;;5010900;28;20587;-68
2021/05/24 08:27:20;;;;;;;8.77;5.40;;;17.80;99.90;;;;;;5011290;28;20052;-68
2021/05/24 08:30:24;;;;;;;10.30;5.35;;;17.70;99.90;;;;;;5017847;28;20044;-67
2021/05/24 08:33:31;;;;;;;9.38;4.97;;;17.70;99.90;;;;;;5029096;28;20388;-68
2021/05/24 08:36:36;;;;;;;11.80;4.75;;;18.10;99.90;;;;;;5029075;28;20427;-68
2021/05/24 08:39:42;;;;;;;11.32;4.25;;;19.10;99.90;;;;;;5029673;28;20048;-68
2021/05/24 08:42:49;;;;;;;12.30;4.95;;;20.10;99.90;;;;;;5027684;28;21679;-68
2021/05/24 08:45:57;;;;;;;11.38;4.07;;;20.60;99.90;;;;;;5029842;28;20092;-68
2021/05/24 08:49:09;;;;;;;10.23;4.45;;;20.90;99.90;;;;;;5027077;28;20048;-68
2021/05/24 08:52:14;;;;;;;9.52;4.63;;;21.10;99.90;;;;;;5028389;28;20044;-68
2021/05/24 08:55:18;;;;;;;10.75;4.97;;;21.10;99.90;;;;;;5025351;28;20076;-68
2021/05/24 08:58:23;;;;;;;10.27;5.18;;;21.20;99.90;;;;;;5028368;28;20072;-68
2021/05/24 09:01:28;;;;;;;11.80;4.38;;;21.00;99.90;;;;;;5028400;28;20528;-68
2021/05/24 09:04:48;;;;;;;13.88;5.95;;;21.10;99.90;;;;;;5029623;28;20044;-69
2021/05/24 09:07:59;;;;;;;11.57;5.93;;;20.50;99.90;;;;;;5030389;28;20091;-69
2021/05/24 09:11:06;;;;;;;14.02;6.18;;;20.40;99.90;;;;;;5009188;28;20057;-69
2021/05/24 09:14:19;;;;;;;11.48;5.70;;;20.40;99.90;;;;;;5022911;28;20041;-68
2021/05/24 09:17:23;;;;;;;9.88;4.68;;;20.70;99.90;;;;;;5029501;28;20056;-68
2021/05/24 09:20:28;;;;;;;9.15;4.70;;;21.60;99.90;;;;;;5016185;28;20523;-68
2021/05/24 09:23:35;;;;;;;11.73;5.38;;;22.40;99.90;;;;;;5027281;28;20040;-68
2021/05/24 09:26:39;;;;;;;7.53;5.03;;;22.50;99.90;;;;;;5014695;28;20044;-68
2021/05/24 09:29:46;;;;;;;14.45;4.88;;;22.30;99.90;;;;;;5028657;28;20056;-68
2021/05/24 09:32:50;;;;;;;13.30;5.68;;;21.50;99.90;;;;;;5026798;28;20037;-67
2021/05/24 09:35:55;;;;;;;15.30;5.75;;;20.50;99.90;;;;;;5021473;28;20056;-68
2021/05/24 09:39:04;;;;;;;16.73;6.88;;;19.70;99.90;;;;;;4997775;28;20044;-67
2021/05/24 09:42:11;;;;;;;19.70;6.10;;;19.30;99.90;;;;;;5015727;28;20048;-68
2021/05/24 09:45:21;;;;;;;14.07;5.97;;;19.20;99.90;;;;;;5028924;28;20044;-67
2021/05/24 09:48:32;;;;;;;14.73;7.40;;;18.90;99.90;;;;;;5030191;28;20049;-67
2021/05/24 09:51:37;;;;;;;13.52;3.65;;;19.10;99.90;;;;;;5016610;28;20048;-67
2021/05/24 09:54:41;;;;;;;11.18;4.75;;;19.40;99.90;;;;;;5029203;28;20048;-68
2021/05/24 09:58:01;;;;;;;9.90;5.65;;;20.90;99.90;;;;;;5029728;28;20064;-69
2021/05/24 10:01:17;;;;;;;11.75;5.22;;;22.40;99.90;;;;;;5028560;28;20550;-68
2021/05/24 10:04:24;;;;;;;8.57;3.38;;;24.00;99.90;;;;;;5029751;28;20380;-69
2021/05/24 10:07:28;;;;;;;11.77;4.78;;;25.00;99.90;;;;;;5028684;28;20048;-68
2021/05/24 10:10:34;;;;;;;11.48;4.72;;;24.60;99.90;;;;;;5009188;28;20037;-69
2021/05/24 10:13:40;;;;;;;12.10;4.93;;;22.50;99.90;;;;;;4997537;28;20528;-70
2021/05/24 10:16:48;;;;;;;13.68;5.10;;;22.20;99.90;;;;;;5010018;28;20045;-68
2021/05/24 10:19:52;;;;;;;11.27;5.38;;;22.20;99.90;;;;;;5028377;28;20053;-68
2021/05/24 10:22:57;;;;;;;17.67;6.97;;;23.10;99.90;;;;;;5030514;28;20041;-69
2021/05/24 10:26:02;;;;;;;12.52;6.03;;;21.10;99.90;;;;;;5032754;28;20056;-68
2021/05/24 10:29:07;;;;;;;14.48;7.10;;;20.90;99.90;;;;;;5033026;28;20044;-69
2021/05/24 10:32:21;;;;;;;13.25;6.40;;;21.10;99.90;;;;;;5033087;28;20048;-68
2021/05/24 10:35:37;;;;;;;13.35;6.32;;;20.90;99.90;;;;;;5032884;28;20052;-68
2021/05/24 10:38:41;;;;;;;16.08;6.43;;;21.10;99.90;;;;;;5012529;28;20110;-67
2021/05/24 10:41:55;;;;;;;11.27;5.53;;;21.20;99.90;;;;;;5012855;28;20041;-68
2021/05/24 10:45:21;;;;;;;9.98;5.38;;;22.00;99.90;;;;;;5030200;28;20499;-67
2021/05/24 10:48:34;;;;;;;9.32;4.63;;;23.20;99.90;;;;;;5032667;28;20400;-68
2021/05/24 10:51:57;;;;;;;15.07;5.10;;;24.10;99.90;;;;;;5032520;28;20060;-68
2021/05/24 10:55:27;;;;;;;10.70;4.75;;;24.60;99.90;;;;;;5031510;28;20503;-68
2021/05/24 10:58:40;;;;;;;10.80;4.78;;;24.90;99.90;;;;;;5032798;28;20048;-67
2021/05/24 11:01:59;;;;;;;13.25;4.65;;;26.00;99.90;;;;;;5031927;28;20032;-69
2021/05/24 11:05:40;;;;;;;11.13;4.20;;;26.40;99.90;;;;;;5031755;28;20400;-69
2021/05/24 11:09:02;;;;;;;9.50;4.40;;;26.30;99.90;;;;;;4954650;28;20407;-68
2021/05/24 11:12:10;;;;;;;9.27;4.50;;;26.30;99.90;;;;;;5031380;28;20397;-68
2021/05/24 11:15:19;;;;;;;10.27;3.38;;;26.60;99.90;;;;;;5028634;28;20044;-68
2021/05/24 11:18:24;;;;;;;9.23;3.85;;;26.70;99.90;;;;;;5030346;28;20515;-68
2021/05/24 11:21:29;;;;;;;10.00;3.65;;;26.50;99.90;;;;;;5025864;28;20033;-68
2021/05/24 11:24:41;;;;;;;11.98;4.28;;;26.20;99.90;;;;;;5032199;28;20049;-68
2021/05/24 11:28:10;;;;;;;6.43;3.72;;;26.00;99.90;;;;;;5032188;28;20053;-68
2021/05/24 11:31:35;;;;;;;9.73;3.88;;;25.70;99.90;;;;;;5031066;28;20061;-68
2021/05/24 11:34:39;;;;;;;11.90;3.55;;;25.60;99.90;;;;;;5031734;28;20052;-68
2021/05/24 11:37:44;;;;;;;8.35;4.47;;;25.50;99.90;;;;;;5031458;28;20048;-68
2021/05/24 11:41:16;;;;;;;13.55;4.45;;;24.90;99.90;;;;;;5031064;28;20048;-67
2021/05/24 11:44:29;;;;;;;9.68;4.28;;;24.40;99.90;;;;;;5020133;28;20057;-68
2021/05/24 11:47:33;;;;;;;12.68;4.07;;;24.20;99.90;;;;;;5019781;28;20045;-68
2021/05/24 11:50:49;;;;;;;14.73;4.32;;;23.90;99.90;;;;;;5031791;28;20044;-68
2021/05/24 11:54:06;;;;;;;11.05;4.03;;;23.30;99.90;;;;;;5030242;28;20381;-68
2021/05/24 11:57:10;;;;;;;10.25;4.47;;;23.50;99.90;;;;;;5029625;28;20028;-68
2021/05/24 12:00:18;;;;;;;13.27;4.43;;;23.40;99.90;;;;;;5018043;28;20044;-68
2021/05/24 12:03:23;;;;;;;9.73;4.72;;;23.50;99.90;;;;;;5030370;28;20049;-68
2021/05/24 12:06:29;;;;;;;12.57;3.83;;;23.70;99.90;;;;;;5031318;28;20048;-68
2021/05/24 12:10:03;;;;;;;9.73;3.70;;;23.60;99.90;;;;;;5030050;28;20060;-68
2021/05/24 12:13:07;;;;;;;13.43;4.60;;;23.20;99.90;;;;;;5030590;28;20049;-68
2021/05/24 12:16:12;;;;;;;10.07;4.15;;;22.70;99.90;;;;;;5031001;28;20105;-68
2021/05/24 12:19:21;;;;;;;9.82;5.03;;;22.30;99.90;;;;;;5030150;28;20068;-68
2021/05/24 12:22:29;;;;;;;10.00;4.60;;;22.00;99.90;;;;;;5030775;28;20044;-68
2021/05/24 12:25:43;;;;;;;12.27;4.82;;;21.60;99.90;;;;;;5030069;28;20052;-68
2021/05/24 12:28:48;;;;;;;13.27;4.70;;;21.40;99.90;;;;;;5030897;28;20507;-68
2021/05/24 12:31:55;;;;;;;15.07;4.72;;;21.60;99.90;;;;;;5030666;28;20052;-68
2021/05/24 12:35:05;;;;;;;12.40;5.15;;;22.10;99.90;;;;;;5030171;28;20052;-68
2021/05/24 12:38:28;;;;;;;7.72;4.07;;;22.70;99.90;;;;;;5030357;28;20340;-68
2021/05/24 12:41:32;;;;;;;11.40;4.50;;;23.00;99.90;;;;;;5029923;28;20388;-68
2021/05/24 12:44:39;;;;;;;10.25;3.65;;;23.20;99.90;;;;;;5029952;28;20515;-67
2021/05/24 12:47:43;;;;;;;13.82;4.82;;;23.50;99.90;;;;;;5018561;28;20072;-68
2021/05/24 12:50:49;;;;;;;9.32;3.95;;;23.60;99.90;;;;;;5029680;28;20508;-67
2021/05/24 12:54:06;;;;;;;14.80;3.97;;;23.70;99.90;;;;;;5029385;28;20044;-68
2021/05/24 12:57:11;;;;;;;10.45;4.53;;;23.90;99.90;;;;;;5029946;28;20044;-69
2021/05/24 13:00:17;;;;;;;12.80;3.88;;;24.40;99.90;;;;;;5028781;28;20053;-68
2021/05/24 13:03:42;;;;;;;15.13;4.22;;;24.80;99.90;;;;;;5030391;28;20056;-69
2021/05/24 13:06:53;;;;;;;10.18;3.47;;;25.20;99.90;;;;;;5030163;28;20060;-68
2021/05/24 13:10:10;;;;;;;10.43;3.63;;;25.60;99.90;;;;;;5028972;28;20087;-68
2021/05/24 13:13:21;;;;;;;8.88;3.53;;;25.80;99.90;;;;;;5030428;28;20052;-69
2021/05/24 13:16:33;;;;;;;9.13;4.15;;;25.10;99.90;;;;;;5030314;28;20056;-68
2021/05/24 13:32:33;;;;;;;18.00;4.95;;;22.80;99.90;;;;;;5029806;28;20040;-68
2021/05/24 13:35:40;;;;;;;9.88;3.88;;;22.50;99.90;;;;;;5023087;28;20404;-68
2021/05/24 13:39:18;;;;;;;11.15;4.22;;;22.20;99.90;;;;;;5027716;28;20507;-68
2021/05/24 13:42:22;;;;;;;12.25;4.28;;;22.00;99.90;;;;;;5027416;28;20040;-68
2021/05/24 13:45:29;;;;;;;11.95;4.63;;;21.80;99.90;;;;;;5028127;28;20045;-68
2021/05/24 13:48:33;;;;;;;14.00;3.90;;;21.60;99.90;;;;;;5029125;28;20049;-69
2021/05/24 13:51:38;;;;;;;9.82;4.18;;;21.50;99.90;;;;;;5014187;28;20049;-68
2021/05/24 13:54:43;;;;;;;12.57;4.53;;;21.30;99.90;;;;;;5026211;28;20052;-69
2021/05/24 13:57:48;;;;;;;12.20;4.40;;;21.10;99.90;;;;;;5030661;28;20044;-67
2021/05/24 14:00:53;;;;;;;19.42;4.03;;;20.80;99.90;;;;;;5020805;28;20041;-68
2021/05/24 14:03:58;;;;;;;8.07;4.00;;;20.60;99.90;;;;;;5030824;28;20053;-68
2021/05/24 14:07:02;;;;;;;10.98;4.38;;;20.50;99.90;;;;;;5031130;28;20044;-69
2021/05/24 14:10:08;;;;;;;16.88;4.82;;;20.20;99.90;;;;;;5028954;28;20048;-68
2021/05/24 14:13:18;;;;;;;12.48;5.03;;;19.70;99.90;;;;;;5032686;28;20100;-68
2021/05/24 14:16:23;;;;;;;13.27;5.47;;;19.60;99.90;;;;;;5018488;28;20037;-68
2021/05/24 14:19:27;;;;;;;17.27;5.85;;;18.90;99.90;;;;;;5032245;28;20040;-67
2021/05/24 14:22:32;;;;;;;9.63;3.85;;;18.50;99.90;;;;;;5032254;28;20404;-69
2021/05/24 14:25:38;;;;;;;22.67;4.60;;;18.30;99.90;;;;;;5029440;28;20040;-68
2021/05/24 14:28:46;;;;;;;12.43;3.70;;;18.20;99.90;;;;;;5028313;28;20052;-69
2021/05/24 14:31:50;;;;;;;9.02;3.50;;;18.00;99.90;;;;;;5014931;28;20392;-68
2021/05/24 14:34:54;;;;;;;12.02;3.60;;;17.80;99.90;;;;;;5026380;28;20404;-69
2021/05/24 14:37:59;;;;;;;15.60;4.05;;;17.60;99.90;;;;;;5010419;28;20049;-68
2021/05/24 14:41:08;;;;;;;11.52;3.25;;;17.60;99.90;;;;;;5005080;28;20595;-69
2021/05/24 14:44:12;;;;;;;10.68;3.60;;;17.80;99.90;;;;;;5016074;28;20056;-68
2021/05/24 14:47:17;;;;;;;9.45;2.10;;;18.10;99.90;;;;;;5004586;28;20064;-67
2021/05/24 14:50:26;;;;;;;7.18;1.67;;;18.70;99.90;;;;;;5000839;28;20404;-69
2021/05/24 14:53:31;;;;;;;7.88;1.60;;;19.10;99.90;;;;;;5013190;28;20052;-69
2021/05/24 14:56:35;;;;;;;8.20;2.05;;;19.50;99.90;;;;;;5005359;28;20053;-68
2021/05/24 14:59:40;;;;;;;7.40;2.78;;;19.70;99.90;;;;;;5012928;28;20068;-69
2021/05/24 15:02:45;;;;;;;12.50;2.33;;;19.20;99.90;;;;;;5012444;28;20076;-69
2021/05/24 15:06:04;;;;;;;11.68;2.90;;;19.60;99.90;;;;;;5005248;28;20044;-69
2021/05/24 15:09:08;;;;;;;10.70;2.53;;;19.30;99.90;;;;;;5013391;28;20057;-69
2021/05/24 15:12:12;;;;;;;12.10;3.30;;;19.10;99.90;;;;;;5014147;28;20057;-68
2021/05/24 15:15:18;;;;;;;14.65;4.20;;;18.60;99.90;;;;;;5012405;28;20807;-68
2021/05/24 15:18:23;;;;;;;15.48;5.32;;;18.40;99.90;;;;;;5012687;28;20045;-68
2021/05/24 15:21:27;;;;;;;13.57;5.55;;;18.20;99.90;;;;;;5000141;28;20044;-68
2021/05/24 15:24:31;;;;;;;16.17;5.20;;;18.30;99.90;;;;;;5003387;28;20041;-69
2021/05/24 15:27:36;;;;;;;17.70;6.10;;;18.40;99.90;;;;;;5006127;28;20056;-69
2021/05/24 15:30:41;;;;;;;15.75;6.03;;;18.40;99.90;;;;;;5014592;28;20048;-69
2021/05/24 15:33:47;;;;;;;20.17;7.30;;;18.30;99.90;;;;;;5007808;28;20056;-69
2021/05/24 15:36:51;;;;;;;19.80;6.38;;;18.10;99.90;;;;;;5003729;28;20048;-68
2021/05/24 15:39:56;;;;;;;16.58;5.63;;;18.10;99.90;;;;;;5013311;28;20052;-67
2021/05/24 15:43:05;;;;;;;17.17;5.38;;;18.20;99.90;;;;;;5009090;28;20144;-67
2021/05/24 15:46:10;;;;;;;15.77;4.95;;;18.60;99.90;;;;;;5007612;28;20057;-68
2021/05/24 15:49:15;;;;;;;15.05;5.10;;;18.90;99.90;;;;;;5011494;28;20056;-68
2021/05/24 15:52:20;;;;;;;17.02;5.30;;;19.20;99.90;;;;;;5006245;28;20049;-68
2021/05/24 15:55:24;;;;;;;14.95;5.78;;;19.50;99.90;;;;;;5005682;28;20511;-67
2021/05/24 15:58:33;;;;;;;14.40;5.25;;;19.30;99.90;;;;;;5003811;28;20044;-66
2021/05/24 16:01:39;;;;;;;16.63;4.95;;;19.50;99.90;;;;;;5007652;28;20388;-68
2021/05/24 16:04:43;;;;;;;14.52;2.80;;;19.40;99.90;;;;;;5006112;28;20044;-71
2021/05/24 16:07:48;;;;;;;11.55;2.92;;;19.40;99.90;;;;;;5000982;28;20048;-69
2021/05/24 16:10:53;;;;;;;12.40;3.08;;;18.90;99.90;;;;;;5009151;28;20037;-69